createdAt,value
2019-02-17T00:01:55.530Z,8.83
2019-02-17T00:04:23.796Z,8.82
2019-02-17T00:06:52.054Z,8.86
2019-02-17T00:09:20.564Z,8.86
2019-02-17T00:11:48.824Z,8.94
2019-02-17T00:14:17.092Z,8.95
2019-02-17T00:16:45.345Z,8.99
2019-02-17T00:19:13.623Z,9.06
2019-02-17T00:21:41.895Z,9.08
2019-02-17T00:24:10.157Z,9.14
2019-02-17T00:26:38.422Z,9.15
2019-02-17T00:29:06.670Z,9.14
2019-02-17T00:31:34.936Z,9.15
2019-02-17T00:34:03.213Z,9.15
2019-02-17T00:36:31.461Z,9.14
2019-02-17T00:38:59.724Z,9.17
2019-02-17T00:41:27.994Z,9.15
2019-02-17T00:43:56.256Z,9.18
2019-02-17T00:46:24.510Z,9.14
2019-02-17T00:48:52.791Z,9.21
2019-02-17T00:51:21.044Z,9.21
2019-02-17T00:53:49.315Z,9.22
2019-02-17T00:56:17.576Z,9.26
2019-02-17T00:58:45.828Z,9.32
2019-02-17T01:01:14.111Z,9.30
2019-02-17T01:03:42.380Z,9.27
2019-02-17T01:06:10.636Z,9.27
2019-02-17T01:08:38.920Z,9.32
2019-02-17T01:11:07.180Z,9.37
2019-02-17T01:13:35.466Z,9.42
2019-02-17T01:16:03.725Z,9.39
2019-02-17T01:18:32.007Z,9.40
2019-02-17T01:21:00.276Z,9.37
2019-02-17T01:23:28.537Z,9.35
2019-02-17T01:25:56.789Z,9.36
2019-02-17T01:28:25.054Z,9.43
2019-02-17T01:30:53.327Z,9.46
2019-02-17T01:33:21.583Z,9.49
2019-02-17T01:35:49.852Z,9.50
2019-02-17T01:38:18.123Z,9.52
2019-02-17T01:40:46.380Z,9.48
2019-02-17T01:43:14.663Z,9.46
2019-02-17T01:45:42.933Z,9.49
2019-02-17T01:48:11.218Z,9.50
2019-02-17T01:50:39.492Z,9.59
2019-02-17T01:53:07.749Z,9.62
2019-02-17T01:55:36.029Z,9.61
2019-02-17T01:58:04.302Z,9.67
2019-02-17T02:00:32.567Z,9.76
2019-02-17T02:03:01.543Z,9.74
2019-02-17T02:05:29.811Z,9.79
2019-02-17T02:07:58.079Z,9.84
2019-02-17T02:10:26.351Z,9.76
2019-02-17T02:12:54.608Z,9.82
2019-02-17T02:15:22.891Z,9.84
2019-02-17T02:17:51.151Z,9.76
2019-02-17T02:20:19.423Z,9.76
2019-02-17T02:22:47.702Z,9.72
2019-02-17T02:25:15.971Z,9.78
2019-02-17T02:27:44.230Z,9.71
2019-02-17T02:30:13.665Z,9.76
2019-02-17T02:32:41.936Z,9.76
2019-02-17T02:35:10.218Z,9.78
2019-02-17T02:37:38.473Z,9.74
2019-02-17T02:40:07.833Z,9.62
2019-02-17T02:42:36.087Z,9.62
2019-02-17T02:45:06.509Z,9.66
2019-02-17T02:47:34.768Z,9.63
2019-02-17T02:50:03.026Z,9.64
2019-02-17T02:52:31.311Z,9.68
2019-02-17T02:54:59.583Z,9.65
2019-02-17T02:57:27.855Z,9.61
2019-02-17T02:59:56.113Z,9.62
2019-02-17T03:02:24.373Z,9.60
2019-02-17T03:04:52.639Z,9.63
2019-02-17T03:07:20.977Z,9.62
2019-02-17T03:09:49.238Z,9.61
2019-02-17T03:12:17.504Z,9.64
2019-02-17T03:14:45.774Z,9.62
2019-02-17T03:17:14.059Z,9.62
2019-02-17T03:19:42.301Z,9.67
2019-02-17T03:22:10.590Z,9.75
2019-02-17T03:24:38.865Z,9.74
2019-02-17T03:27:07.141Z,9.72
2019-02-17T03:29:35.411Z,9.62
2019-02-17T03:32:03.682Z,9.59
2019-02-17T03:34:31.942Z,9.64
2019-02-17T03:37:00.224Z,9.57
2019-02-17T03:39:28.467Z,9.50
2019-02-17T03:41:56.723Z,9.45
2019-02-17T03:44:24.986Z,9.49
2019-02-17T03:46:53.265Z,9.52
2019-02-17T03:49:21.533Z,9.51
2019-02-17T03:51:49.809Z,9.33
2019-02-17T03:54:18.077Z,9.21
2019-02-17T03:56:46.345Z,9.07
2019-02-17T03:59:14.619Z,8.94
2019-02-17T04:01:42.942Z,8.67
2019-02-17T04:04:11.151Z,8.61
2019-02-17T04:06:39.406Z,8.68
2019-02-17T04:09:07.979Z,8.55
2019-02-17T04:11:36.307Z,8.42
2019-02-17T04:14:04.578Z,8.39
2019-02-17T04:16:32.851Z,8.31
2019-02-17T04:19:01.145Z,8.26
2019-02-17T04:21:29.414Z,8.26
2019-02-17T04:23:57.699Z,8.34
2019-02-17T04:26:25.981Z,8.29
2019-02-17T04:28:54.260Z,8.29
2019-02-17T04:31:22.534Z,8.25
2019-02-17T04:33:50.788Z,8.19
2019-02-17T04:36:19.049Z,8.17
2019-02-17T04:38:47.326Z,8.15
2019-02-17T04:41:15.581Z,8.11
2019-02-17T04:43:43.848Z,8.14
2019-02-17T04:46:12.111Z,8.12
2019-02-17T04:48:40.371Z,8.02
2019-02-17T04:51:08.635Z,7.97
2019-02-17T04:53:36.911Z,7.81
2019-02-17T04:56:05.169Z,7.77
2019-02-17T04:58:33.446Z,7.54
2019-02-17T05:01:01.718Z,7.46
2019-02-17T05:03:29.985Z,7.47
2019-02-17T05:05:58.263Z,7.38
2019-02-17T05:08:26.524Z,7.33
2019-02-17T05:10:54.813Z,7.27
2019-02-17T05:13:23.083Z,7.08
2019-02-17T05:15:51.320Z,7.09
2019-02-17T05:18:19.588Z,7.04
2019-02-17T05:20:47.861Z,7.00
2019-02-17T05:23:16.137Z,6.97
2019-02-17T05:25:44.426Z,6.97
2019-02-17T05:28:12.704Z,6.99
2019-02-17T05:30:52.246Z,6.97
2019-02-17T05:33:10.977Z,6.90
2019-02-17T05:35:39.255Z,6.88
2019-02-17T05:38:07.515Z,6.99
2019-02-17T05:40:36.536Z,6.91
2019-02-17T05:43:05.026Z,6.84
2019-02-17T05:45:33.304Z,6.74
2019-02-17T05:48:01.582Z,6.73
2019-02-17T05:50:29.939Z,6.70
2019-02-17T05:52:58.207Z,6.62
2019-02-17T05:55:26.489Z,6.62
2019-02-17T05:57:54.758Z,6.53
2019-02-17T06:00:24.713Z,6.53
2019-02-17T06:02:52.960Z,6.55
2019-02-17T06:05:21.226Z,6.56
2019-02-17T06:07:49.489Z,6.50
2019-02-17T06:10:17.751Z,6.48
2019-02-17T06:12:46.029Z,6.49
2019-02-17T06:15:14.290Z,6.41
2019-02-17T06:17:42.566Z,6.37
2019-02-17T06:20:11.394Z,6.34
2019-02-17T06:22:39.648Z,6.28
2019-02-17T06:25:07.939Z,6.40
2019-02-17T06:27:36.200Z,6.40
2019-02-17T06:30:06.089Z,6.43
2019-02-17T06:32:34.348Z,6.28
2019-02-17T06:35:02.624Z,6.35
2019-02-17T06:37:30.877Z,6.43
2019-02-17T06:39:59.171Z,6.51
2019-02-17T06:42:27.447Z,6.50
2019-02-17T06:44:55.734Z,6.55
2019-02-17T06:47:25.677Z,6.45
2019-02-17T06:49:53.899Z,6.44
2019-02-17T06:52:22.163Z,6.47
2019-02-17T06:54:52.095Z,6.48
2019-02-17T06:57:22.000Z,6.40
2019-02-17T06:59:51.915Z,6.50
2019-02-17T07:02:20.172Z,6.42
2019-02-17T07:05:07.871Z,6.34
2019-02-17T07:07:36.125Z,6.31
2019-02-17T07:10:05.231Z,6.27
2019-02-17T07:12:33.501Z,6.28
2019-02-17T07:15:02.594Z,6.26
2019-02-17T07:17:30.861Z,6.26
2019-02-17T07:19:59.125Z,6.33
2019-02-17T07:22:27.403Z,6.38
2019-02-17T07:24:55.663Z,6.39
2019-02-17T07:27:23.926Z,6.39
2019-02-17T07:29:52.193Z,6.40
2019-02-17T07:32:20.464Z,6.35
2019-02-17T07:34:48.734Z,6.36
2019-02-17T07:37:19.267Z,6.39
2019-02-17T07:39:46.984Z,6.44
2019-02-17T07:42:15.347Z,6.47
2019-02-17T07:44:43.631Z,6.51
2019-02-17T07:47:11.874Z,6.59
2019-02-17T07:49:40.144Z,6.67
2019-02-17T07:52:08.474Z,6.68
2019-02-17T07:54:36.758Z,6.74
2019-02-17T07:57:05.025Z,6.76
2019-02-17T07:59:33.286Z,6.77
2019-02-17T08:02:01.560Z,6.83
2019-02-17T08:04:29.839Z,6.90
2019-02-17T08:06:58.109Z,6.88
2019-02-17T08:09:26.380Z,6.87
2019-02-17T08:11:54.634Z,6.88
2019-02-17T08:14:22.924Z,6.90
2019-02-17T08:16:51.190Z,6.86
2019-02-17T08:19:19.450Z,6.88
2019-02-17T08:21:47.702Z,6.98
2019-02-17T08:24:15.961Z,6.99
2019-02-17T08:26:44.230Z,7.03
2019-02-17T08:29:12.500Z,7.11
2019-02-17T08:31:40.766Z,7.20
2019-02-17T08:34:09.046Z,7.28
2019-02-17T08:36:37.302Z,7.25
2019-02-17T08:39:06.155Z,7.31
2019-02-17T08:41:34.404Z,7.48
2019-02-17T08:44:02.666Z,7.47
2019-02-17T08:46:30.915Z,7.44
2019-02-17T08:48:59.209Z,7.44
2019-02-17T08:51:27.485Z,7.39
2019-02-17T08:53:55.725Z,7.35
2019-02-17T08:56:23.997Z,7.38
2019-02-17T08:58:52.266Z,7.36
2019-02-17T09:01:20.532Z,7.46
2019-02-17T09:03:48.785Z,7.55
2019-02-17T09:06:17.709Z,7.71
2019-02-17T09:08:45.963Z,7.69
2019-02-17T09:11:14.229Z,7.75
2019-02-17T09:13:42.492Z,7.88
2019-02-17T09:16:10.760Z,7.91
2019-02-17T09:18:39.017Z,8.00
2019-02-17T09:21:07.294Z,8.15
2019-02-17T09:23:35.562Z,8.26
2019-02-17T09:26:03.864Z,8.46
2019-02-17T09:28:32.124Z,8.62
2019-02-17T09:31:00.392Z,8.82
2019-02-17T09:33:28.666Z,8.93
2019-02-17T09:35:56.934Z,9.12
2019-02-17T09:38:25.193Z,9.10
2019-02-17T09:40:53.486Z,9.21
2019-02-17T09:43:21.716Z,9.29
2019-02-17T09:45:49.983Z,9.47
2019-02-17T09:48:18.242Z,9.50
2019-02-17T09:50:46.522Z,9.72
2019-02-17T09:53:14.784Z,9.74
2019-02-17T09:55:43.055Z,9.84
2019-02-17T09:58:12.106Z,9.98
2019-02-17T10:00:40.356Z,10.11
2019-02-17T10:03:08.640Z,10.07
2019-02-17T10:05:36.906Z,10.07
2019-02-17T10:08:05.178Z,10.22
2019-02-17T10:10:33.447Z,10.34
2019-02-17T10:13:01.703Z,10.39
2019-02-17T10:15:30.020Z,10.55
2019-02-17T10:17:58.249Z,10.71
2019-02-17T10:20:26.525Z,10.67
2019-02-17T10:22:54.809Z,10.71
2019-02-17T10:25:23.069Z,10.73
2019-02-17T10:27:51.338Z,10.78
2019-02-17T10:30:19.683Z,10.89
2019-02-17T10:32:47.965Z,10.84
2019-02-17T10:35:16.242Z,10.79
2019-02-17T10:37:44.509Z,10.75
2019-02-17T10:40:15.680Z,10.81
2019-02-17T10:42:43.971Z,10.89
2019-02-17T10:45:12.486Z,10.94
2019-02-17T10:47:40.769Z,11.04
2019-02-17T10:50:13.124Z,11.25
2019-02-17T10:52:41.399Z,11.33
2019-02-17T10:55:11.612Z,11.28
2019-02-17T10:57:39.879Z,11.30
2019-02-17T11:00:17.382Z,11.34
2019-02-17T11:02:47.478Z,11.55
2019-02-17T11:05:15.722Z,11.55
2019-02-17T11:07:44.008Z,11.51
2019-02-17T11:10:13.012Z,11.49
2019-02-17T11:12:41.293Z,11.43
2019-02-17T11:15:15.661Z,11.48
2019-02-17T11:17:43.962Z,11.47
2019-02-17T11:20:12.474Z,11.53
2019-02-17T11:22:40.744Z,11.69
2019-02-17T11:25:09.096Z,11.93
2019-02-17T11:27:37.376Z,12.08
2019-02-17T11:30:14.570Z,12.02
2019-02-17T11:32:42.835Z,12.27
2019-02-17T11:35:11.105Z,12.49
2019-02-17T11:37:39.377Z,12.45
2019-02-17T11:40:10.211Z,12.38
2019-02-17T11:42:38.457Z,12.38
2019-02-17T11:45:12.519Z,12.59
2019-02-17T11:47:40.769Z,12.61
2019-02-17T11:50:09.782Z,12.44
2019-02-17T11:52:38.061Z,12.61
2019-02-17T11:55:09.469Z,12.56
2019-02-17T11:57:37.728Z,12.50
2019-02-17T12:00:17.710Z,12.74
2019-02-17T12:02:46.072Z,12.67
2019-02-17T12:05:14.509Z,12.80
2019-02-17T12:07:42.782Z,12.81
2019-02-17T12:10:11.527Z,12.94
2019-02-17T12:12:39.964Z,13.08
2019-02-17T12:15:13.238Z,13.09
2019-02-17T12:17:41.511Z,13.00
2019-02-17T12:20:29.597Z,13.17
2019-02-17T12:22:59.517Z,13.24
2019-02-17T12:25:29.420Z,13.30
2019-02-17T12:28:08.266Z,13.33
2019-02-17T12:30:37.474Z,13.37
2019-02-17T12:33:05.747Z,13.49
2019-02-17T12:35:34.019Z,13.48
2019-02-17T12:38:02.302Z,13.42
2019-02-17T12:40:30.571Z,13.32
2019-02-17T12:42:58.842Z,13.41
2019-02-17T12:45:27.135Z,13.44
2019-02-17T12:47:58.375Z,13.44
2019-02-17T12:50:25.438Z,13.47
2019-02-17T12:52:53.707Z,13.49
2019-02-17T12:55:21.983Z,13.58
2019-02-17T12:57:50.258Z,13.67
2019-02-17T13:00:18.531Z,13.75
2019-02-17T13:02:47.097Z,13.71
2019-02-17T13:05:15.365Z,13.75
2019-02-17T13:07:43.623Z,13.73
2019-02-17T13:10:12.523Z,13.78
2019-02-17T13:12:40.785Z,13.87
2019-02-17T13:15:13.184Z,13.97
2019-02-17T13:17:41.477Z,13.97
2019-02-17T13:20:13.680Z,14.02
2019-02-17T13:22:41.965Z,13.86
2019-02-17T13:25:14.917Z,14.05
2019-02-17T13:27:43.192Z,13.94
2019-02-17T13:30:17.210Z,13.88
2019-02-17T13:32:45.480Z,13.91
2019-02-17T13:35:13.753Z,13.85
2019-02-17T13:37:42.025Z,14.11
2019-02-17T13:40:12.459Z,13.97
2019-02-17T13:42:40.735Z,13.88
2019-02-17T13:45:12.185Z,14.01
2019-02-17T13:47:40.457Z,14.08
2019-02-17T13:50:14.504Z,14.01
2019-02-17T13:52:42.767Z,14.20
2019-02-17T13:55:11.097Z,14.10
2019-02-17T13:57:39.387Z,14.01
2019-02-17T14:00:13.159Z,14.03
2019-02-17T14:02:41.442Z,14.03
2019-02-17T14:05:09.769Z,13.93
2019-02-17T14:07:38.038Z,13.97
2019-02-17T14:10:09.141Z,13.86
2019-02-17T14:12:37.420Z,13.97
2019-02-17T14:15:11.787Z,13.90
2019-02-17T14:17:40.053Z,13.83
2019-02-17T14:20:09.966Z,13.97
2019-02-17T14:22:38.237Z,13.99
2019-02-17T14:25:10.710Z,13.81
2019-02-17T14:27:38.348Z,13.83
2019-02-17T14:30:14.199Z,13.64
2019-02-17T14:32:42.481Z,13.40
2019-02-17T14:35:10.747Z,13.38
2019-02-17T14:37:40.020Z,13.36
2019-02-17T14:40:12.653Z,13.39
2019-02-17T14:42:40.947Z,13.53
2019-02-17T14:45:15.916Z,13.58
2019-02-17T14:47:44.200Z,13.60
2019-02-17T14:50:12.817Z,13.68
2019-02-17T14:52:41.092Z,13.60
2019-02-17T14:55:11.376Z,13.57
2019-02-17T14:57:39.642Z,13.36
2019-02-17T15:00:13.100Z,13.30
2019-02-17T15:02:41.346Z,13.30
2019-02-17T15:05:10.348Z,13.46
2019-02-17T15:07:38.626Z,13.45
2019-02-17T15:10:09.338Z,13.26
2019-02-17T15:12:37.611Z,13.32
2019-02-17T15:15:16.276Z,13.37
2019-02-17T15:17:44.549Z,13.38
2019-02-17T15:20:15.525Z,13.45
2019-02-17T15:22:43.775Z,13.28
2019-02-17T15:25:12.336Z,13.26
2019-02-17T15:27:40.631Z,13.10
2019-02-17T15:30:13.572Z,12.98
2019-02-17T15:32:41.936Z,12.81
2019-02-17T15:35:10.206Z,12.69
2019-02-17T15:37:38.544Z,12.69
2019-02-17T15:40:11.775Z,12.76
2019-02-17T15:42:40.127Z,12.73
2019-02-17T15:45:14.522Z,12.53
2019-02-17T15:47:42.876Z,12.55
2019-02-17T15:50:12.292Z,12.45
2019-02-17T15:52:40.547Z,12.52
2019-02-17T15:55:10.767Z,12.61
2019-02-17T15:57:39.058Z,12.50
2019-02-17T16:00:13.394Z,12.43
2019-02-17T16:02:41.698Z,12.38
2019-02-17T16:05:10.359Z,12.34
2019-02-17T16:07:38.657Z,12.16
2019-02-17T16:10:09.668Z,12.10
2019-02-17T16:12:37.944Z,12.08
2019-02-17T16:15:14.311Z,11.93
2019-02-17T16:17:42.584Z,11.94
2019-02-17T16:20:12.714Z,11.85
2019-02-17T16:22:40.977Z,11.61
2019-02-17T16:25:10.381Z,11.25
2019-02-17T16:27:38.653Z,11.36
2019-02-17T16:30:10.109Z,11.35
2019-02-17T16:32:38.401Z,11.32
2019-02-17T16:35:07.247Z,11.21
2019-02-17T16:37:35.513Z,11.18
2019-02-17T16:40:04.112Z,11.14
2019-02-17T16:42:32.394Z,11.13
2019-02-17T16:45:00.981Z,10.86
2019-02-17T16:47:29.420Z,10.83
2019-02-17T16:49:57.685Z,10.71
2019-02-17T16:52:25.987Z,10.78
2019-02-17T16:54:54.259Z,10.83
2019-02-17T16:57:22.536Z,10.92
2019-02-17T16:59:50.809Z,10.96
2019-02-17T17:02:19.095Z,10.85
2019-02-17T17:04:48.926Z,10.84
2019-02-17T17:07:17.240Z,10.88
2019-02-17T17:09:45.519Z,10.86
2019-02-17T17:12:13.813Z,10.75
2019-02-17T17:14:42.093Z,10.71
2019-02-17T17:17:10.382Z,10.80
2019-02-17T17:19:38.665Z,10.75
2019-02-17T17:22:06.930Z,10.65
2019-02-17T17:24:35.210Z,10.52
2019-02-17T17:27:03.552Z,10.39
2019-02-17T17:29:31.825Z,10.24
2019-02-17T17:32:00.090Z,10.23
2019-02-17T17:34:28.374Z,10.22
2019-02-17T17:36:56.669Z,10.13
2019-02-17T17:39:24.959Z,10.07
2019-02-17T17:41:53.224Z,10.10
2019-02-17T17:44:21.495Z,10.00
2019-02-17T17:46:49.770Z,9.88
2019-02-17T17:49:19.499Z,9.77
2019-02-17T17:51:47.896Z,9.77
2019-02-17T17:54:16.184Z,9.83
2019-02-17T17:56:44.444Z,9.86
2019-02-17T17:59:12.708Z,9.79
2019-02-17T18:01:40.977Z,9.73
2019-02-17T18:04:09.248Z,9.62
2019-02-17T18:06:37.526Z,9.64
2019-02-17T18:09:06.484Z,9.47
2019-02-17T18:11:34.749Z,9.51
2019-02-17T18:14:02.994Z,9.43
2019-02-17T18:16:31.260Z,9.40
2019-02-17T18:18:59.524Z,9.42
2019-02-17T18:21:27.799Z,9.42
2019-02-17T18:23:56.068Z,9.48
2019-02-17T18:26:24.325Z,9.37
2019-02-17T18:28:52.608Z,9.26
2019-02-17T18:31:20.888Z,9.12
2019-02-17T18:33:49.179Z,9.16
2019-02-17T18:36:17.493Z,9.10
2019-02-17T18:38:45.740Z,9.04
2019-02-17T18:41:14.003Z,8.94
2019-02-17T18:43:42.767Z,8.84
2019-02-17T18:46:11.100Z,8.84
2019-02-17T18:48:39.354Z,8.77
2019-02-17T18:51:07.623Z,8.87
2019-02-17T18:53:35.878Z,8.94
2019-02-17T18:56:04.141Z,8.75
2019-02-17T18:58:32.409Z,8.71
2019-02-17T19:01:00.680Z,8.69
2019-02-17T19:03:29.031Z,8.53
2019-02-17T19:05:57.292Z,8.48
2019-02-17T19:08:25.548Z,8.43
2019-02-17T19:10:53.808Z,8.48
2019-02-17T19:13:22.063Z,8.39
2019-02-17T19:15:50.330Z,8.33
2019-02-17T19:18:18.594Z,8.20
2019-02-17T19:20:46.875Z,8.33
2019-02-17T19:23:15.145Z,8.41
2019-02-17T19:25:43.412Z,8.32
2019-02-17T19:28:11.669Z,8.29
2019-02-17T19:30:39.929Z,8.21
2019-02-17T19:33:08.181Z,8.10
2019-02-17T19:35:41.919Z,8.17
2019-02-17T19:38:06.468Z,8.16
2019-02-17T19:40:34.723Z,8.19
2019-02-17T19:43:03.621Z,8.08
2019-02-17T19:45:31.923Z,8.14
2019-02-17T19:48:00.178Z,8.15
2019-02-17T19:50:28.429Z,8.10
2019-02-17T19:52:56.678Z,8.12
2019-02-17T19:55:24.930Z,8.04
2019-02-17T19:57:53.188Z,7.87
2019-02-17T20:00:22.182Z,7.94
2019-02-17T20:03:08.273Z,7.98
2019-02-17T20:05:38.164Z,7.97
2019-02-17T20:08:06.424Z,7.81
2019-02-17T20:10:34.689Z,7.69
2019-02-17T20:13:02.957Z,7.55
2019-02-17T20:15:33.096Z,7.58
2019-02-17T20:18:01.372Z,7.66
2019-02-17T20:20:29.651Z,7.74
2019-02-17T20:22:57.935Z,7.76
2019-02-17T20:25:26.205Z,7.61
2019-02-17T20:27:54.473Z,7.60
2019-02-17T20:30:22.760Z,7.60
2019-02-17T20:32:51.038Z,7.61
2019-02-17T20:35:19.300Z,7.49
2019-02-17T20:37:47.584Z,7.42
2019-02-17T20:40:17.197Z,7.35
2019-02-17T20:42:45.468Z,7.39
2019-02-17T20:45:13.811Z,7.25
2019-02-17T20:47:42.582Z,7.31
2019-02-17T20:50:13.266Z,7.22
2019-02-17T20:52:41.541Z,7.19
2019-02-17T20:55:11.440Z,7.05
2019-02-17T20:57:40.022Z,7.07
2019-02-17T21:00:15.587Z,6.86
2019-02-17T21:02:43.849Z,6.86
2019-02-17T21:05:12.120Z,6.91
2019-02-17T21:07:40.387Z,6.92
2019-02-17T21:10:12.578Z,6.80
2019-02-17T21:12:40.848Z,6.80
2019-02-17T21:15:11.215Z,6.79
2019-02-17T21:17:39.952Z,6.75
2019-02-17T21:20:09.675Z,6.67
2019-02-17T21:22:37.941Z,6.66
2019-02-17T21:25:11.094Z,6.67
2019-02-17T21:27:39.353Z,6.58
2019-02-17T21:30:19.905Z,6.50
2019-02-17T21:32:48.185Z,6.49
2019-02-17T21:35:17.072Z,6.40
2019-02-17T21:37:45.346Z,6.32
2019-02-17T21:40:14.152Z,6.33
2019-02-17T21:42:42.425Z,6.27
2019-02-17T21:45:16.832Z,6.26
2019-02-17T21:47:45.088Z,6.24
2019-02-17T21:50:14.093Z,6.22
2019-02-17T21:52:42.595Z,6.15
2019-02-17T21:55:14.032Z,6.13
2019-02-17T21:57:42.312Z,6.11
2019-02-17T22:00:20.360Z,6.07
2019-02-17T22:02:48.696Z,6.03
2019-02-17T22:05:16.968Z,6.06
2019-02-17T22:07:45.229Z,6.04
2019-02-17T22:10:20.035Z,5.98
2019-02-17T22:12:50.932Z,5.99
2019-02-17T22:15:19.722Z,5.99
2019-02-17T22:17:48.005Z,5.88
2019-02-17T22:20:16.268Z,5.83
2019-02-17T22:22:44.535Z,5.79
2019-02-17T22:25:14.325Z,5.76
2019-02-17T22:27:42.593Z,5.74
2019-02-17T22:30:12.762Z,5.65
2019-02-17T22:32:41.025Z,5.64
2019-02-17T22:35:09.555Z,5.61
2019-02-17T22:37:37.844Z,5.66
2019-02-17T22:40:11.449Z,5.63
2019-02-17T22:42:39.724Z,5.60
2019-02-17T22:45:09.935Z,5.58
2019-02-17T22:47:38.189Z,5.58
2019-02-17T22:50:09.767Z,5.58
2019-02-17T22:52:38.020Z,5.59
2019-02-17T22:55:09.099Z,5.50
2019-02-17T22:57:37.358Z,5.44
2019-02-17T23:00:26.586Z,5.43
2019-02-17T23:02:54.863Z,5.36
2019-02-17T23:05:23.148Z,5.32
2019-02-17T23:07:51.428Z,5.35
2019-02-17T23:10:19.707Z,5.34
2019-02-17T23:12:47.977Z,5.36
2019-02-17T23:15:16.250Z,5.32
2019-02-17T23:17:44.545Z,5.36
2019-02-17T23:20:13.650Z,5.39
2019-02-17T23:22:41.932Z,5.34
2019-02-17T23:25:10.189Z,5.33
2019-02-17T23:27:38.470Z,5.27
2019-02-17T23:30:08.876Z,5.27
2019-02-17T23:32:37.151Z,5.18
2019-02-17T23:35:05.993Z,5.14
2019-02-17T23:37:34.273Z,5.11
2019-02-17T23:40:02.517Z,5.07
2019-02-17T23:42:30.773Z,5.03
2019-02-17T23:44:59.055Z,4.99
2019-02-17T23:47:27.317Z,5.01
2019-02-17T23:49:55.579Z,4.94
2019-02-17T23:52:23.849Z,4.94
2019-02-17T23:54:52.107Z,4.95
2019-02-17T23:57:20.376Z,4.95
2019-02-17T23:59:48.630Z,4.95
